Time;durP1;ratioP1;P1;durP2;ratioP2;P2;SDS_P1;SDS_P2;PMS_P1;PMS_P2;Temp;Humidity;BMP_temperature;BMP_pressure;BME280_temperature;BME280_humidity;BME280_pressure;Samples;Min_cycle;Max_cycle;Signal;HPM_P1;HPM_P2
2023/07/09 00:01:32;;;;;;;6.38;3.97;;;;;;;27.14;26.94;101367.78;5020676;28;20199;-77
2023/07/09 00:04:00;;;;;;;6.30;3.63;;;;;;;27.09;27.02;101363.97;5037989;28;20045;-79
2023/07/09 00:06:28;;;;;;;5.85;3.88;;;;;;;27.06;26.91;101362.47;5026489;28;20100;-79
2023/07/09 00:08:56;;;;;;;5.35;3.50;;;;;;;27.04;27.16;101359.03;5017820;28;20088;-79
2023/07/09 00:11:24;;;;;;;5.53;3.70;;;;;;;27.01;27.00;101353.88;5041100;28;20113;-79
2023/07/09 00:13:52;;;;;;;5.22;3.72;;;;;;;26.98;27.26;101347.88;5032061;28;20248;-79
2023/07/09 00:16:24;;;;;;;5.45;3.63;;;;;;;26.99;26.94;101353.25;5022735;28;20033;-80
2023/07/09 00:18:53;;;;;;;5.43;3.30;;;;;;;26.97;26.89;101351.75;5020490;28;20065;-80
2023/07/09 00:21:22;;;;;;;5.30;3.75;;;;;;;26.95;27.01;101351.16;5042818;28;20037;-79
2023/07/09 00:23:52;;;;;;;5.82;3.92;;;;;;;26.91;27.22;101352.69;5041693;28;20472;-79
2023/07/09 00:26:22;;;;;;;5.72;3.92;;;;;;;26.90;27.00;101351.81;5025087;28;20486;-80
2023/07/09 00:28:51;;;;;;;6.35;4.25;;;;;;;26.86;27.51;101350.59;5032562;28;20038;-79
2023/07/09 00:31:19;;;;;;;6.10;3.80;;;;;;;26.84;27.36;101344.34;5048604;28;20049;-79
2023/07/09 00:33:47;;;;;;;4.88;3.60;;;;;;;26.85;27.01;101348.00;5038630;28;20113;-79
2023/07/09 00:36:21;;;;;;;6.20;3.85;;;;;;;26.86;27.83;101349.72;5025886;28;20049;-79
2023/07/09 00:38:51;;;;;;;6.18;4.00;;;;;;;26.80;27.50;101343.06;5032849;28;20041;-79
2023/07/09 00:41:22;;;;;;;5.90;3.78;;;;;;;26.79;27.17;101341.38;5023838;28;20460;-78
2023/07/09 00:43:52;;;;;;;5.50;3.90;;;;;;;26.78;27.63;101347.22;5037801;28;20197;-79
2023/07/09 00:47:00;;;;;;;7.28;4.20;;;;;;;26.73;27.97;101340.31;5016627;28;20061;-79
2023/07/09 00:49:34;;;;;;;7.95;3.88;;;;;;;26.70;27.23;101343.59;5023952;28;20042;-80
2023/07/09 00:52:15;;;;;;;5.22;3.70;;;;;;;26.70;27.67;101339.94;5032922;28;20050;-80
2023/07/09 00:54:46;;;;;;;5.60;3.85;;;;;;;26.67;27.80;101341.25;5028010;28;20076;-80
2023/07/09 00:57:18;;;;;;;6.00;3.60;;;;;;;26.62;27.82;101331.81;5042167;28;20459;-80
2023/07/09 00:59:51;;;;;;;5.78;3.88;;;;;;;26.62;27.52;101334.63;5037194;28;20049;-80
2023/07/09 01:02:23;;;;;;;5.35;4.15;;;;;;;26.60;27.42;101351.66;5043668;28;20055;-79
2023/07/09 01:04:52;;;;;;;5.85;3.95;;;;;;;26.56;27.97;101343.91;5026241;28;20049;-78
2023/07/09 01:07:22;;;;;;;5.82;3.92;;;;;;;26.57;27.69;101342.81;5013226;28;20045;-78
2023/07/09 01:09:50;;;;;;;6.55;4.20;;;;;;;26.53;27.51;101341.56;5032805;28;20120;-78
2023/07/09 01:12:21;;;;;;;5.75;4.13;;;;;;;26.53;27.66;101342.44;5013138;28;20034;-77
2023/07/09 01:14:51;;;;;;;5.85;3.60;;;;;;;26.49;27.80;101341.16;5029270;28;20045;-78
2023/07/09 01:17:20;;;;;;;6.05;3.63;;;;;;;26.46;27.73;101341.63;5021769;28;20037;-78
2023/07/09 01:19:51;;;;;;;5.20;4.00;;;;;;;26.46;27.74;101341.63;5017954;28;20459;-79
2023/07/09 01:22:22;;;;;;;5.35;3.88;;;;;;;26.44;27.92;101349.41;5035790;28;20064;-79
2023/07/09 01:24:54;;;;;;;6.03;3.97;;;;;;;26.40;28.05;101353.75;5034700;28;20045;-79
2023/07/09 01:27:26;;;;;;;5.70;3.80;;;;;;;26.39;27.77;101360.44;5017183;28;20037;-78
2023/07/09 01:29:55;;;;;;;5.90;3.75;;;;;;;26.36;28.03;101352.50;5012608;28;20045;-79
2023/07/09 01:32:24;;;;;;;5.93;3.63;;;;;;;26.36;28.19;101355.28;5017625;28;20052;-79
2023/07/09 01:34:55;;;;;;;5.95;3.70;;;;;;;26.34;28.32;101352.72;5022586;28;20045;-79
2023/07/09 01:37:28;;;;;;;5.60;3.58;;;;;;;26.34;28.53;101357.47;5035268;28;20117;-80
2023/07/09 01:39:56;;;;;;;6.13;3.60;;;;;;;26.30;28.34;101348.63;5018164;28;20464;-79
2023/07/09 01:42:28;;;;;;;5.35;3.60;;;;;;;26.31;28.18;101358.75;5028923;28;20046;-79
2023/07/09 01:44:56;;;;;;;5.57;3.40;;;;;;;26.26;28.28;101357.72;5015512;28;20212;-80
2023/07/09 01:47:25;;;;;;;5.60;3.65;;;;;;;26.27;28.21;101360.31;5025479;28;20416;-80
2023/07/09 01:49:56;;;;;;;6.40;4.20;;;;;;;26.25;28.52;101356.88;5022911;28;20076;-80
2023/07/09 01:52:29;;;;;;;6.13;3.97;;;;;;;26.26;28.03;101357.72;5039604;28;20084;-79
2023/07/09 01:54:57;;;;;;;5.50;3.53;;;;;;;26.21;28.17;101358.44;5019495;28;20061;-80
2023/07/09 01:57:32;;;;;;;6.40;4.05;;;;;;;26.22;28.64;101356.44;5018445;28;20033;-79
2023/07/09 02:00:05;;;;;;;5.30;3.90;;;;;;;26.18;28.42;101358.00;5033667;28;20385;-80
2023/07/09 02:02:42;;;;;;;5.05;3.63;;;;;;;26.14;28.61;101356.72;5032870;28;20508;-81
2023/07/09 02:05:13;;;;;;;5.78;3.95;;;;;;;26.09;28.33;101350.94;5029436;28;20413;-82
2023/07/09 02:07:42;;;;;;;5.75;3.92;;;;;;;26.10;28.37;101358.28;5038993;28;20037;-81
2023/07/09 02:10:13;;;;;;;5.72;3.95;;;;;;;26.07;28.51;101361.50;5025035;28;20413;-81
2023/07/09 02:12:41;;;;;;;5.40;4.05;;;;;;;26.00;28.32;101359.59;5029546;28;20884;-80
2023/07/09 02:15:11;;;;;;;5.55;4.10;;;;;;;26.00;28.38;101347.50;5033610;28;20041;-79
2023/07/09 02:17:40;;;;;;;5.93;3.83;;;;;;;25.96;28.81;101357.47;5029668;28;20068;-79
2023/07/09 02:20:14;;;;;;;5.22;3.70;;;;;;;25.94;28.59;101354.88;5034139;28;20119;-79
2023/07/09 02:22:43;;;;;;;5.28;3.90;;;;;;;25.94;28.84;101354.88;5017661;28;20041;-80
2023/07/09 02:25:12;;;;;;;5.20;3.80;;;;;;;25.91;28.99;101358.13;5034321;28;20041;-80
2023/07/09 02:27:40;;;;;;;5.38;3.67;;;;;;;25.88;28.84;101361.41;5031234;28;20114;-79
2023/07/09 02:30:10;;;;;;;6.07;3.63;;;;;;;25.89;29.15;101362.22;5030351;28;20041;-79
2023/07/09 02:32:39;;;;;;;4.60;3.35;;;;;;;25.85;28.70;101363.78;5024992;28;20041;-80
2023/07/09 02:35:08;;;;;;;5.85;3.88;;;;;;;25.84;28.91;101365.72;5019744;28;20037;-80
2023/07/09 02:37:37;;;;;;;6.68;4.45;;;;;;;25.81;29.25;101363.34;5019195;28;20113;-80
2023/07/09 02:40:08;;;;;;;6.07;3.92;;;;;;;25.81;29.40;101365.28;5016799;28;20125;-79
2023/07/09 02:42:36;;;;;;;6.32;4.30;;;;;;;25.73;29.31;101366.41;5018759;28;20136;-79
2023/07/09 02:45:05;;;;;;;5.88;3.78;;;;;;;25.74;28.88;101362.53;5016934;28;20513;-79
2023/07/09 02:47:34;;;;;;;6.70;4.10;;;;;;;25.72;29.22;101364.69;5037282;28;20034;-77
2023/07/09 02:50:03;;;;;;;5.15;3.78;;;;;;;25.70;29.51;101364.06;5036565;28;20041;-77
2023/07/09 02:52:32;;;;;;;7.45;4.40;;;;;;;25.66;29.25;101362.78;5039470;28;20048;-79
2023/07/09 02:55:00;;;;;;;6.63;4.10;;;;;;;25.63;29.04;101369.72;5036458;28;20072;-78
2023/07/09 02:57:29;;;;;;;6.78;4.60;;;;;;;25.64;29.34;101371.41;5036928;28;20083;-78
2023/07/09 02:59:57;;;;;;;7.50;4.32;;;;;;;25.58;29.39;101366.69;5026741;28;20057;-79
2023/07/09 03:02:26;;;;;;;6.63;3.80;;;;;;;25.56;29.50;101367.97;5035923;28;20064;-79
2023/07/09 03:04:54;;;;;;;5.45;3.95;;;;;;;25.53;29.55;101369.31;5037509;28;20044;-78
2023/07/09 03:07:22;;;;;;;5.80;3.45;;;;;;;25.49;29.86;101365.19;5021031;28;20060;-78
2023/07/09 03:09:50;;;;;;;6.95;3.90;;;;;;;25.47;29.41;101367.34;5026544;28;20034;-79
2023/07/09 03:12:17;;;;;;;6.10;4.03;;;;;;;25.46;29.42;101370.38;5020609;28;20473;-79
2023/07/09 03:14:50;;;;;;;6.50;4.03;;;;;;;25.47;29.91;101372.94;5016937;28;20477;-78
2023/07/09 03:17:17;;;;;;;;;;;;;;;25.12;29.95;101372.41;5016999;28;20050;-79
2023/07/09 03:19:45;;;;;;;6.30;3.67;;;;;;;25.37;30.06;101382.91;5034187;28;19921;-79
2023/07/09 03:22:13;;;;;;;5.63;4.07;;;;;;;25.39;29.59;101383.56;5020733;28;20042;-78
2023/07/09 03:24:41;;;;;;;5.35;3.80;;;;;;;25.38;29.82;101377.09;5021137;28;20061;-78
2023/07/09 03:27:09;;;;;;;5.05;3.88;;;;;;;25.38;29.69;101379.88;5033257;28;20053;-79
2023/07/09 03:29:37;;;;;;;4.65;3.58;;;;;;;25.35;29.81;101385.91;5032935;28;20041;-79
2023/07/09 03:32:07;;;;;;;5.18;3.53;;;;;;;25.37;30.15;101388.50;5016545;28;20068;-79
2023/07/09 03:34:35;;;;;;;6.82;4.05;;;;;;;25.34;29.90;101388.94;5030727;28;20044;-79
2023/07/09 03:37:03;;;;;;;6.63;3.90;;;;;;;25.33;29.83;101390.88;5017978;28;20117;-79
2023/07/09 03:39:31;;;;;;;5.50;3.83;;;;;;;25.32;29.91;101394.75;5025634;28;20049;-78
2023/07/09 03:41:59;;;;;;;5.93;3.42;;;;;;;25.30;30.08;101385.72;5040186;28;20042;-78
2023/07/09 03:44:27;;;;;;;5.85;3.83;;;;;;;25.29;30.08;101392.41;5038407;28;20045;-78
2023/07/09 03:46:55;;;;;;;6.63;4.00;;;;;;;25.27;30.19;101397.38;5017962;28;20085;-78
2023/07/09 03:49:25;;;;;;;5.60;3.63;;;;;;;25.28;30.14;101396.28;5016373;28;20413;-79
2023/07/09 03:51:52;;;;;;;7.03;3.90;;;;;;;25.25;30.20;101400.38;5035328;28;20041;-79
2023/07/09 03:54:20;;;;;;;5.97;3.60;;;;;;;25.23;29.96;101398.88;5035116;28;20464;-78
2023/07/09 03:56:48;;;;;;;7.20;4.22;;;;;;;25.22;30.41;101392.44;5021112;28;20132;-78
2023/07/09 03:59:16;;;;;;;5.10;3.72;;;;;;;25.21;30.13;101403.84;5018960;28;20081;-78
2023/07/09 04:01:46;;;;;;;6.22;4.13;;;;;;;25.18;30.12;101412.69;5040083;28;20112;-78
2023/07/09 04:04:14;;;;;;;6.75;4.05;;;;;;;25.15;30.27;101402.75;5020610;28;20045;-78
2023/07/09 04:06:43;;;;;;;6.13;4.00;;;;;;;25.16;30.39;101403.63;5036938;28;20068;-79
2023/07/09 04:09:11;;;;;;;7.18;4.20;;;;;;;25.12;30.56;101405.16;5034517;28;20515;-80
2023/07/09 04:11:39;;;;;;;8.50;3.92;;;;;;;25.11;30.44;101395.88;5027886;28;20408;-79
2023/07/09 04:14:07;;;;;;;5.80;3.95;;;;;;;25.09;30.42;101402.78;5016683;28;20147;-78
2023/07/09 04:16:35;;;;;;;6.13;4.43;;;;;;;25.08;30.48;101399.09;5017032;28;20111;-79
2023/07/09 04:19:03;;;;;;;5.32;3.88;;;;;;;25.06;30.66;101400.44;5016432;28;20049;-78
2023/07/09 04:21:31;;;;;;;7.50;4.18;;;;;;;25.04;30.72;101400.63;5035236;28;20435;-79
2023/07/09 04:24:00;;;;;;;7.35;4.20;;;;;;;25.03;30.72;101398.91;5012432;28;20076;-80
2023/07/09 04:26:28;;;;;;;5.80;3.95;;;;;;;25.01;30.75;101403.88;5032905;28;20382;-80
2023/07/09 04:28:56;;;;;;;5.93;4.10;;;;;;;25.00;30.90;101409.69;5022527;28;20054;-79
2023/07/09 04:31:24;;;;;;;6.57;4.13;;;;;;;24.98;30.67;101403.47;5034333;28;20037;-80
2023/07/09 04:33:52;;;;;;;6.68;3.97;;;;;;;24.98;30.80;101406.25;5032290;28;20049;-80
2023/07/09 04:36:20;;;;;;;5.88;3.70;;;;;;;24.95;31.17;101410.34;5033940;28;20092;-79
2023/07/09 04:38:47;;;;;;;5.68;3.88;;;;;;;24.96;31.31;101416.81;5021193;28;20053;-79
2023/07/09 04:41:17;;;;;;;6.20;4.10;;;;;;;24.97;31.19;101407.31;5033477;28;20052;-80
2023/07/09 04:43:44;;;;;;;5.60;3.83;;;;;;;24.95;30.75;101412.28;5020218;28;20053;-79
2023/07/09 04:46:12;;;;;;;6.07;3.92;;;;;;;24.95;31.11;101421.53;5028723;28;20113;-79
2023/07/09 04:48:40;;;;;;;5.65;3.72;;;;;;;24.93;31.12;101408.78;5030740;28;20049;-79
2023/07/09 04:51:08;;;;;;;7.70;4.13;;;;;;;24.94;31.34;101414.22;5032704;28;20053;-79
2023/07/09 04:53:36;;;;;;;5.20;3.95;;;;;;;24.94;31.04;101407.75;5037732;28;20136;-79
2023/07/09 04:56:04;;;;;;;5.93;4.05;;;;;;;24.95;31.08;101420.69;5018521;28;20046;-80
2023/07/09 04:58:34;;;;;;;5.45;4.00;;;;;;;24.95;31.23;101413.13;5015867;28;20045;-79
2023/07/09 05:01:02;;;;;;;5.93;3.70;;;;;;;24.92;30.92;101413.53;5013057;28;20080;-79
2023/07/09 05:03:30;;;;;;;5.75;3.72;;;;;;;24.93;30.96;101414.38;5031791;28;20869;-78
2023/07/09 05:05:58;;;;;;;6.82;4.15;;;;;;;24.91;31.08;101411.78;5031590;28;20188;-79
2023/07/09 05:08:26;;;;;;;6.28;4.00;;;;;;;24.89;31.50;101411.19;5014307;28;20132;-79
2023/07/09 05:10:54;;;;;;;5.63;3.58;;;;;;;24.88;31.15;101415.91;5030259;28;20041;-77
2023/07/09 05:13:22;;;;;;;6.35;3.78;;;;;;;24.89;31.15;101416.78;5026392;28;20049;-78
2023/07/09 05:15:52;;;;;;;5.90;4.07;;;;;;;24.93;31.62;101417.19;5015812;28;20041;-79
2023/07/09 05:18:20;;;;;;;5.97;3.70;;;;;;;24.93;31.37;101418.06;5013593;28;20041;-79
2023/07/09 05:20:48;;;;;;;5.38;3.63;;;;;;;24.97;31.39;101407.31;5017069;28;20055;-78
2023/07/09 05:23:16;;;;;;;5.03;3.40;;;;;;;25.00;31.30;101410.53;5021784;28;20482;-79
2023/07/09 05:25:44;;;;;;;6.18;4.13;;;;;;;25.05;31.14;101410.78;5039255;28;20048;-79
2023/07/09 05:28:12;;;;;;;5.53;3.50;;;;;;;25.11;31.25;101409.03;5039960;28;20072;-80
2023/07/09 05:30:43;;;;;;;5.35;4.03;;;;;;;25.19;31.34;101411.59;5035591;28;20053;-80
2023/07/09 05:33:12;;;;;;;5.20;3.42;;;;;;;25.25;30.96;101413.53;5022655;28;20506;-80
2023/07/09 05:35:40;;;;;;;5.28;3.70;;;;;;;25.27;30.97;101406.63;5019518;28;20053;-80
2023/07/09 05:38:08;;;;;;;5.68;3.78;;;;;;;25.34;31.06;101403.81;5020769;28;20050;-79
2023/07/09 05:40:35;;;;;;;6.22;3.53;;;;;;;25.38;30.75;101405.13;5018519;28;20045;-80
2023/07/09 05:43:03;;;;;;;4.82;3.28;;;;;;;25.43;30.86;101401.63;5022192;28;20114;-80
2023/07/09 05:45:32;;;;;;;6.78;3.75;;;;;;;25.47;31.01;101414.16;5028620;28;20080;-79
2023/07/09 05:48:00;;;;;;;6.68;3.83;;;;;;;25.54;31.27;101409.41;5029346;28;20054;-79
2023/07/09 05:50:29;;;;;;;5.68;3.90;;;;;;;25.58;31.08;101408.72;5048990;28;20100;-78
2023/07/09 05:52:57;;;;;;;5.90;3.92;;;;;;;25.63;31.20;101402.47;5039618;28;20033;-80
2023/07/09 05:55:25;;;;;;;5.70;3.75;;;;;;;25.69;31.21;101406.34;5035948;28;20076;-80
2023/07/09 05:57:53;;;;;;;5.53;3.60;;;;;;;25.76;31.11;101413.63;5017237;28;20145;-80
2023/07/09 06:00:21;;;;;;;5.50;3.85;;;;;;;25.82;30.98;101409.94;5037495;28;20116;-81
2023/07/09 06:02:49;;;;;;;5.97;3.85;;;;;;;25.89;31.15;101404.28;5037165;28;20527;-81
2023/07/09 06:05:17;;;;;;;5.45;3.38;;;;;;;25.96;31.02;101413.56;5033836;28;20046;-80
2023/07/09 06:07:47;;;;;;;5.07;3.38;;;;;;;26.05;30.73;101412.19;5031184;28;20033;-81
2023/07/09 06:10:16;;;;;;;5.47;3.40;;;;;;;26.09;31.03;101407.91;5018048;28;20141;-81
2023/07/09 06:12:44;;;;;;;5.93;3.55;;;;;;;26.16;30.93;101407.88;5034883;28;20122;-82
2023/07/09 06:15:12;;;;;;;5.90;3.70;;;;;;;26.23;30.71;101408.69;5017013;28;20084;-81
2023/07/09 06:17:40;;;;;;;7.85;3.75;;;;;;;26.27;30.76;101408.03;5021225;28;20051;-81
2023/07/09 06:20:09;;;;;;;7.13;3.75;;;;;;;26.35;30.31;101410.56;5032792;28;20114;-80
2023/07/09 06:22:37;;;;;;;6.28;3.80;;;;;;;26.39;30.42;101408.16;5024803;28;20053;-80
2023/07/09 06:25:07;;;;;;;5.07;3.60;;;;;;;26.46;30.17;101409.00;5036465;28;20041;-81
2023/07/09 06:27:35;;;;;;;5.97;3.97;;;;;;;26.48;29.93;101408.72;5034403;28;20537;-82
2023/07/09 06:30:04;;;;;;;6.45;3.55;;;;;;;26.52;30.18;101408.06;5025956;28;20120;-81
2023/07/09 06:32:32;;;;;;;7.10;4.18;;;;;;;26.55;30.25;101410.41;5028946;28;20893;-80
2023/07/09 06:35:00;;;;;;;6.90;3.95;;;;;;;26.60;30.28;101409.75;5033748;28;20054;-82
2023/07/09 06:37:29;;;;;;;5.82;3.70;;;;;;;26.64;30.27;101406.28;5034998;28;20129;-82
2023/07/09 06:39:57;;;;;;;6.40;3.72;;;;;;;26.68;30.24;101410.34;5032822;28;20056;-81
2023/07/09 06:42:26;;;;;;;5.20;3.55;;;;;;;26.75;29.69;101407.50;5027566;28;20041;-77
2023/07/09 06:45:07;;;;;;;5.63;3.88;;;;;;;26.79;29.89;101407.91;5008739;28;20033;-78
2023/07/09 06:47:35;;;;;;;5.72;3.70;;;;;;;26.84;29.94;101414.53;5029301;28;20041;-78
2023/07/09 06:50:03;;;;;;;4.72;3.17;;;;;;;26.90;30.15;101418.38;5029014;28;20060;-79
2023/07/09 06:52:31;;;;;;;5.47;3.78;;;;;;;26.94;29.96;101416.84;5009944;28;20064;-77
2023/07/09 06:54:59;;;;;;;5.80;3.67;;;;;;;27.01;30.60;101420.44;5030608;28;20361;-79
2023/07/09 06:57:28;;;;;;;5.65;3.83;;;;;;;27.07;30.14;101414.75;5031592;28;20095;-78
2023/07/09 06:59:56;;;;;;;7.15;3.72;;;;;;;27.11;29.57;101420.78;5021272;28;20056;-78
2023/07/09 07:02:24;;;;;;;5.82;3.47;;;;;;;27.17;29.69;101414.28;5013504;28;20049;-78
2023/07/09 07:04:52;;;;;;;6.95;4.20;;;;;;;27.22;29.76;101413.56;5012297;28;20061;-79
2023/07/09 07:07:20;;;;;;;6.10;3.72;;;;;;;27.26;29.65;101412.88;5039781;28;20063;-79
2023/07/09 07:09:48;;;;;;;5.55;3.78;;;;;;;27.32;29.46;101409.16;5020283;28;20045;-79
2023/07/09 07:12:25;;;;;;;6.20;3.63;;;;;;;27.40;29.16;101411.66;5029335;28;20050;-78
2023/07/09 07:14:54;;;;;;;5.63;3.75;;;;;;;27.45;29.42;101405.34;5024649;28;20405;-78
2023/07/09 07:17:23;;;;;;;5.75;3.78;;;;;;;27.50;29.27;101409.16;5034732;28;20064;-79
2023/07/09 07:19:52;;;;;;;6.00;3.83;;;;;;;27.56;29.57;101398.94;5040016;28;20045;-80
2023/07/09 07:22:21;;;;;;;5.20;3.40;;;;;;;27.63;29.29;101396.88;5042923;28;20045;-84
2023/07/09 07:24:55;;;;;;;4.82;3.38;;;;;;;27.71;29.30;101393.78;5028657;28;20049;-83
2023/07/09 07:27:23;;;;;;;4.78;3.28;;;;;;;27.79;29.05;101393.47;5017828;28;20049;-83
2023/07/09 07:29:52;;;;;;;6.00;3.83;;;;;;;27.86;29.22;101394.25;5035119;28;20393;-82
2023/07/09 07:32:21;;;;;;;4.90;3.63;;;;;;;27.98;28.89;101387.81;5027943;28;20038;-82
2023/07/09 07:34:49;;;;;;;4.93;3.78;;;;;;;28.05;29.41;101395.06;5029722;28;20109;-82
2023/07/09 07:37:20;;;;;;;5.20;3.53;;;;;;;28.17;28.79;101386.69;5031988;28;20116;-83
2023/07/09 07:39:49;;;;;;;5.32;3.80;;;;;;;28.21;29.06;101393.59;5027452;28;20060;-83
2023/07/09 07:42:19;;;;;;;4.68;3.10;;;;;;;28.34;29.21;101390.59;5033081;28;20508;-83
2023/07/09 07:44:47;;;;;;;5.38;3.58;;;;;;;28.43;29.03;101388.28;5032147;28;20484;-83
2023/07/09 07:47:15;;;;;;;4.97;3.75;;;;;;;28.53;28.92;101389.41;5032074;28;20730;-83
2023/07/09 07:49:45;;;;;;;5.60;3.88;;;;;;;28.65;28.18;101397.03;5033626;28;20187;-83
2023/07/09 07:52:13;;;;;;;5.22;3.38;;;;;;;28.73;28.28;101388.25;5014643;28;20072;-83
2023/07/09 07:54:41;;;;;;;5.75;3.63;;;;;;;28.84;28.35;101387.44;5025367;28;20501;-82
2023/07/09 07:57:10;;;;;;;5.53;3.55;;;;;;;28.94;28.73;101390.47;5016646;28;20095;-82
2023/07/09 07:59:38;;;;;;;5.63;3.55;;;;;;;29.04;28.00;101381.41;5032436;28;20541;-82
2023/07/09 08:02:11;;;;;;;5.90;3.90;;;;;;;29.16;28.30;101380.34;5020511;28;20147;-83
2023/07/09 08:04:40;;;;;;;5.20;3.90;;;;;;;29.25;28.70;101393.00;5016728;28;20072;-82
2023/07/09 08:07:10;;;;;;;4.82;3.30;;;;;;;29.38;28.00;101391.00;5023773;28;20425;-82
2023/07/09 08:09:39;;;;;;;4.43;3.25;;;;;;;29.47;27.78;101396.03;5035159;28;20056;-82
2023/07/09 08:12:11;;;;;;;4.45;3.28;;;;;;;29.57;27.86;101396.25;5031555;28;20044;-83
2023/07/09 08:14:46;;;;;;;4.78;3.55;;;;;;;29.68;27.96;101388.84;5030274;28;20497;-83
2023/07/09 08:17:13;;;;;;;5.60;3.70;;;;;;;29.77;27.89;101395.00;5028867;28;20061;-82
2023/07/09 08:19:46;;;;;;;5.38;3.42;;;;;;;29.92;27.48;101387.72;5033930;28;20064;-83
2023/07/09 08:22:16;;;;;;;4.57;3.28;;;;;;;30.01;27.64;101391.84;5025111;28;20218;-83
2023/07/09 08:24:44;;;;;;;5.03;3.38;;;;;;;30.09;27.95;101385.81;5033318;28;20042;-84
2023/07/09 08:27:12;;;;;;;4.72;3.53;;;;;;;30.21;27.17;101391.41;5015740;28;20049;-83
2023/07/09 08:29:41;;;;;;;5.40;3.88;;;;;;;30.30;27.52;101383.44;5025666;28;20045;-83
2023/07/09 08:32:10;;;;;;;4.97;3.38;;;;;;;30.42;27.39;101376.59;5032813;28;20037;-83
2023/07/09 08:34:40;;;;;;;6.28;3.92;;;;;;;30.50;27.44;101375.31;5016748;28;20041;-83
2023/07/09 08:37:29;;;;;;;6.03;3.80;;;;;;;30.60;27.04;101372.69;5025818;28;20149;-83
2023/07/09 08:39:57;;;;;;;5.20;3.70;;;;;;;30.67;26.55;101370.53;5029352;28;20079;-83
2023/07/09 08:42:32;;;;;;;5.82;3.45;;;;;;;30.78;26.38;101372.47;5020070;28;20045;-82
2023/07/09 08:45:22;;;;;;;4.72;3.40;;;;;;;30.90;26.16;101368.72;5030904;28;20041;-83
2023/07/09 08:47:59;;;;;;;5.45;3.70;;;;;;;30.98;26.58;101368.28;5031419;28;20547;-83
2023/07/09 08:50:33;;;;;;;4.93;3.50;;;;;;;31.07;26.19;101370.41;5027344;28;20451;-83
2023/07/09 08:53:03;;;;;;;4.88;3.30;;;;;;;31.16;25.88;101363.19;5024927;28;20069;-82
2023/07/09 08:55:39;;;;;;;5.15;3.60;;;;;;;31.24;26.01;101358.25;5033562;28;20521;-83
2023/07/09 08:58:14;;;;;;;4.75;3.33;;;;;;;31.33;25.46;101359.50;5042688;28;20108;-83
2023/07/09 09:00:48;;;;;;;6.63;3.63;;;;;;;31.45;25.68;101365.91;5043006;28;20045;-82
2023/07/09 09:03:30;;;;;;;5.85;3.40;;;;;;;31.54;25.48;101365.19;5024925;28;20072;-83
2023/07/09 09:05:58;;;;;;;6.15;3.85;;;;;;;31.59;26.19;101361.56;5037392;28;20117;-82
2023/07/09 09:08:39;;;;;;;5.40;3.50;;;;;;;31.72;25.37;101355.56;5025508;28;20037;-83
2023/07/09 09:11:14;;;;;;;5.35;3.50;;;;;;;31.80;24.85;101360.75;5018757;28;20045;-83
2023/07/09 09:13:44;;;;;;;7.38;3.70;;;;;;;31.87;25.18;101352.06;5012819;28;20092;-83
2023/07/09 09:16:23;;;;;;;5.53;3.38;;;;;;;31.97;24.49;101355.88;5028684;28;20030;-82
2023/07/09 09:18:55;;;;;;;6.10;4.00;;;;;;;32.03;24.57;101356.75;5052814;28;20044;-82
2023/07/09 09:21:26;;;;;;;5.10;3.33;;;;;;;32.12;24.29;101358.00;5035424;28;20068;-81
2023/07/09 09:23:59;;;;;;;6.20;3.75;;;;;;;32.19;24.00;101355.84;5023283;28;20075;-83
2023/07/09 09:26:31;;;;;;;5.32;3.50;;;;;;;32.28;23.92;101342.91;5034943;28;20045;-83
2023/07/09 09:29:00;;;;;;;4.90;3.72;;;;;;;32.33;24.23;101345.78;5035731;28;20038;-83
2023/07/09 09:31:30;;;;;;;5.55;3.47;;;;;;;32.44;24.15;101345.88;5023096;28;20038;-83
2023/07/09 09:33:58;;;;;;;5.65;3.60;;;;;;;32.50;24.08;101340.00;5019216;28;20101;-83
2023/07/09 09:36:28;;;;;;;6.25;3.50;;;;;;;32.57;23.89;101343.44;5034696;28;20072;-83
2023/07/09 09:39:02;;;;;;;5.13;3.22;;;;;;;32.68;23.24;101338.78;5029183;28;20044;-83
2023/07/09 09:41:35;;;;;;;6.00;3.90;;;;;;;32.74;23.47;101334.84;5028244;28;20053;-83
2023/07/09 09:44:04;;;;;;;5.30;3.00;;;;;;;32.78;22.81;101336.03;5033148;28;20049;-83
2023/07/09 09:46:33;;;;;;;5.75;3.35;;;;;;;32.87;22.44;101342.03;5017403;28;20107;-82
2023/07/09 09:49:03;;;;;;;5.63;3.42;;;;;;;32.92;22.91;101339.22;5033662;28;20095;-83
2023/07/09 09:51:31;;;;;;;5.40;3.40;;;;;;;32.96;22.84;101338.44;5033583;28;20050;-83
2023/07/09 09:54:02;;;;;;;6.40;3.42;;;;;;;33.04;21.85;101332.25;5034367;28;20041;-82
2023/07/09 09:56:36;;;;;;;4.40;3.55;;;;;;;33.10;21.89;101335.13;5031156;28;20041;-83
2023/07/09 09:59:05;;;;;;;5.75;3.42;;;;;;;33.17;22.20;101335.75;5026418;28;20053;-83
2023/07/09 10:01:37;;;;;;;4.70;3.35;;;;;;;33.24;22.56;101330.69;5019467;28;20072;-83
2023/07/09 10:04:06;;;;;;;;;;;;;;;32.98;22.54;101333.31;5022089;28;20046;-83
2023/07/09 10:06:37;;;;;;;4.28;3.25;;;;;;;33.37;21.90;101333.03;5029993;28;19921;-82
2023/07/09 10:09:20;;;;;;;5.60;3.38;;;;;;;33.47;21.54;101335.91;5037619;28;20038;-83
2023/07/09 10:11:51;;;;;;;5.47;3.65;;;;;;;33.53;22.31;101329.19;5032498;28;20038;-83
2023/07/09 10:14:34;;;;;;;4.77;3.40;;;;;;;33.62;21.74;101332.34;5037338;28;20033;-83
2023/07/09 10:17:12;;;;;;;4.38;3.35;;;;;;;33.70;21.53;101321.31;5036759;28;20352;-83
2023/07/09 10:19:48;;;;;;;4.45;3.20;;;;;;;33.78;21.26;101315.09;5039336;28;20724;-83
2023/07/09 10:22:25;;;;;;;4.75;3.60;;;;;;;33.86;21.28;101310.00;5026349;28;20045;-83
2023/07/09 10:25:02;;;;;;;5.13;3.35;;;;;;;33.94;21.12;101309.44;5034554;28;20049;-83
2023/07/09 10:27:38;;;;;;;5.35;3.58;;;;;;;34.04;21.28;101309.50;5017801;28;20050;-83
2023/07/09 10:30:27;;;;;;;5.35;3.50;;;;;;;34.09;21.09;101315.19;5020710;28;20132;-83
2023/07/09 10:33:08;;;;;;;5.35;3.30;;;;;;;34.20;20.49;101316.94;5035734;28;20055;-83
2023/07/09 10:35:39;;;;;;;;;;;;;;;33.91;21.57;101315.69;5031060;28;20041;-83
2023/07/09 10:38:21;;;;;;;4.57;3.05;;;;;;;34.32;20.70;101313.78;5033842;28;19921;-82
2023/07/09 10:40:55;;;;;;;4.60;2.75;;;;;;;34.42;20.47;101314.69;5024044;28;20072;-83
2023/07/09 10:43:32;;;;;;;5.38;3.28;;;;;;;34.48;20.39;101319.25;5031957;28;20195;-83
2023/07/09 10:46:04;;;;;;;4.32;3.28;;;;;;;34.56;20.33;101314.97;5025284;28;20145;-83
2023/07/09 10:48:37;;;;;;;4.03;3.10;;;;;;;34.64;20.44;101305.03;5035079;28;20140;-83
2023/07/09 10:51:14;;;;;;;6.03;3.47;;;;;;;34.71;19.99;101316.94;5035266;28;20050;-83
2023/07/09 10:53:46;;;;;;;4.95;3.17;;;;;;;34.77;19.75;101319.53;5032453;28;20120;-82
2023/07/09 10:56:20;;;;;;;5.40;3.25;;;;;;;34.85;19.73;101313.28;5020509;28;20100;-82
2023/07/09 10:58:54;;;;;;;5.43;3.35;;;;;;;34.90;19.44;101316.13;5026395;28;20045;-81
2023/07/09 11:01:29;;;;;;;5.55;3.38;;;;;;;34.99;19.51;101318.38;5044460;28;20037;-81
2023/07/09 11:04:03;;;;;;;5.47;3.35;;;;;;;35.04;19.06;101296.47;5051167;28;20536;-80
2023/07/09 11:06:38;;;;;;;5.10;3.30;;;;;;;35.10;18.98;101300.16;5036791;28;20113;-81
2023/07/09 11:09:24;;;;;;;5.15;3.10;;;;;;;35.15;18.89;101295.28;5029679;28;20060;-81
2023/07/09 11:11:58;;;;;;;4.80;3.08;;;;;;;35.22;18.37;101289.31;5019123;28;20093;-80
2023/07/09 11:14:32;;;;;;;4.40;3.15;;;;;;;35.27;18.87;101284.50;5032926;28;20567;-81
2023/07/09 11:17:01;;;;;;;5.40;3.13;;;;;;;35.30;18.65;101278.19;5035219;28;20041;-81
2023/07/09 11:19:29;;;;;;;4.72;3.42;;;;;;;35.36;18.68;101269.66;5034017;28;20412;-82
2023/07/09 11:22:03;;;;;;;4.35;3.38;;;;;;;35.42;18.57;101263.66;5032855;28;20092;-82
2023/07/09 11:24:36;;;;;;;4.72;3.20;;;;;;;35.45;18.71;101265.03;5035898;28;20388;-80
2023/07/09 11:27:18;;;;;;;5.47;3.53;;;;;;;35.49;18.23;101255.66;5023910;28;20547;-80
2023/07/09 11:29:48;;;;;;;5.00;3.50;;;;;;;35.52;18.67;101252.19;5028947;28;20045;-82
2023/07/09 11:32:22;;;;;;;4.72;3.40;;;;;;;35.60;18.41;101250.75;5027459;28;20120;-84
2023/07/09 11:34:50;;;;;;;5.40;3.45;;;;;;;35.60;18.56;101247.91;5022240;28;20064;-82
2023/07/09 11:37:19;;;;;;;4.53;3.30;;;;;;;35.62;18.35;101240.75;5038658;28;20488;-83
2023/07/09 11:39:49;;;;;;;6.18;3.45;;;;;;;35.67;18.30;101235.09;5041928;28;20047;-82
2023/07/09 11:42:30;;;;;;;5.07;3.60;;;;;;;35.71;18.10;101234.47;5030687;28;20456;-82